sensor_id;sensor_type;location;lat;lon;timestamp;pressure;altitude;pressure_sealevel;temperature;humidity
39455;BME280;25155;41.890;23.446;2023-02-20T00:00:17;92052.94;;;5.36;52.11
39455;BME280;25155;41.890;23.446;2023-02-20T00:02:45;92057.31;;;5.36;52.35
39455;BME280;25155;41.890;23.446;2023-02-20T00:05:12;92055.56;;;5.41;52.18
39455;BME280;25155;41.890;23.446;2023-02-20T00:07:39;92069.66;;;5.45;51.58
39455;BME280;25155;41.890;23.446;2023-02-20T00:10:06;92064.72;;;5.44;51.96
39455;BME280;25155;41.890;23.446;2023-02-20T00:12:33;92063.63;;;5.40;52.52
39455;BME280;25155;41.890;23.446;2023-02-20T00:15:03;92059.94;;;5.36;52.14
39455;BME280;25155;41.890;23.446;2023-02-20T00:17:30;92043.75;;;5.28;53.30
39455;BME280;25155;41.890;23.446;2023-02-20T00:20:00;92038.75;;;5.22;53.38
39455;BME280;25155;41.890;23.446;2023-02-20T00:22:27;92032.50;;;5.18;53.31
39455;BME280;25155;41.890;23.446;2023-02-20T00:24:54;92049.06;;;5.11;53.51
39455;BME280;25155;41.890;23.446;2023-02-20T00:27:21;92043.56;;;5.08;53.87
39455;BME280;25155;41.890;23.446;2023-02-20T00:29:48;92033.91;;;5.03;53.94
39455;BME280;25155;41.890;23.446;2023-02-20T00:32:16;92065.25;;;4.97;54.30
39455;BME280;25155;41.890;23.446;2023-02-20T00:34:43;92072.00;;;4.98;54.12
39455;BME280;25155;41.890;23.446;2023-02-20T00:37:10;92073.09;;;5.02;54.30
39455;BME280;25155;41.890;23.446;2023-02-20T00:39:37;92086.81;;;4.97;54.20
39455;BME280;25155;41.890;23.446;2023-02-20T00:42:04;92076.72;;;5.01;54.03
39455;BME280;25155;41.890;23.446;2023-02-20T00:44:31;92071.72;;;4.94;54.41
39455;BME280;25155;41.890;23.446;2023-02-20T00:46:58;92085.44;;;4.89;54.44
39455;BME280;25155;41.890;23.446;2023-02-20T00:49:27;92083.97;;;4.76;54.98
39455;BME280;25155;41.890;23.446;2023-02-20T00:51:53;92085.47;;;4.72;55.09
39455;BME280;25155;41.890;23.446;2023-02-20T00:54:20;92091.72;;;4.71;55.35
39455;BME280;25155;41.890;23.446;2023-02-20T00:56:47;92096.09;;;4.71;55.34
39455;BME280;25155;41.890;23.446;2023-02-20T00:59:14;92096.84;;;4.66;55.48
39455;BME280;25155;41.890;23.446;2023-02-20T01:01:41;92088.78;;;4.68;55.41
39455;BME280;25155;41.890;23.446;2023-02-20T01:04:08;92112.25;;;4.73;55.12
39455;BME280;25155;41.890;23.446;2023-02-20T01:06:37;92107.53;;;4.70;55.48
39455;BME280;25155;41.890;23.446;2023-02-20T01:09:03;92082.59;;;4.69;55.40
39455;BME280;25155;41.890;23.446;2023-02-20T01:11:31;92087.22;;;4.67;55.49
39455;BME280;25155;41.890;23.446;2023-02-20T01:13:57;92066.00;;;4.70;55.32
39455;BME280;25155;41.890;23.446;2023-02-20T01:16:24;92072.78;;;4.76;55.28
39455;BME280;25155;41.890;23.446;2023-02-20T01:18:51;92089.41;;;4.75;55.45
39455;BME280;25155;41.890;23.446;2023-02-20T01:21:18;92070.94;;;4.71;55.20
39455;BME280;25155;41.890;23.446;2023-02-20T01:23:47;92069.38;;;4.70;55.37
39455;BME280;25155;41.890;23.446;2023-02-20T01:26:14;92083.06;;;4.66;55.58
39455;BME280;25155;41.890;23.446;2023-02-20T01:28:42;92093.44;;;4.66;55.74
39455;BME280;25155;41.890;23.446;2023-02-20T01:31:09;92082.03;;;4.67;55.63
39455;BME280;25155;41.890;23.446;2023-02-20T01:33:39;92082.28;;;4.65;55.46
39455;BME280;25155;41.890;23.446;2023-02-20T01:36:06;92084.56;;;4.62;55.54
39455;BME280;25155;41.890;23.446;2023-02-20T01:38:33;92079.38;;;4.62;55.44
39455;BME280;25155;41.890;23.446;2023-02-20T01:41:02;92071.84;;;4.60;55.50
39455;BME280;25155;41.890;23.446;2023-02-20T01:43:29;92080.09;;;4.57;55.76
39455;BME280;25155;41.890;23.446;2023-02-20T01:48:38;92082.88;;;4.50;55.58
39455;BME280;25155;41.890;23.446;2023-02-20T01:51:05;92084.19;;;4.53;55.57
39455;BME280;25155;41.890;23.446;2023-02-20T01:53:32;92095.44;;;4.58;55.35
39455;BME280;25155;41.890;23.446;2023-02-20T01:56:00;92097.78;;;4.60;55.30
39455;BME280;25155;41.890;23.446;2023-02-20T01:58:30;92099.34;;;4.61;55.34
39455;BME280;25155;41.890;23.446;2023-02-20T02:00:59;92096.31;;;4.47;55.61
39455;BME280;25155;41.890;23.446;2023-02-20T02:03:28;92090.59;;;4.45;55.76
39455;BME280;25155;41.890;23.446;2023-02-20T02:05:57;92092.09;;;4.41;55.96
39455;BME280;25155;41.890;23.446;2023-02-20T02:08:24;92096.25;;;4.42;55.97
39455;BME280;25155;41.890;23.446;2023-02-20T02:10:53;92104.59;;;4.44;56.13
39455;BME280;25155;41.890;23.446;2023-02-20T02:13:22;92103.75;;;4.38;56.34
39455;BME280;25155;41.890;23.446;2023-02-20T02:15:51;92110.25;;;4.41;56.40
39455;BME280;25155;41.890;23.446;2023-02-20T02:18:25;92112.84;;;4.41;56.44
39455;BME280;25155;41.890;23.446;2023-02-20T02:21:06;92113.16;;;4.28;57.02
39455;BME280;25155;41.890;23.446;2023-02-20T02:23:48;92120.88;;;4.23;57.25
39455;BME280;25155;41.890;23.446;2023-02-20T02:26:32;92118.44;;;4.33;56.53
39455;BME280;25155;41.890;23.446;2023-02-20T02:32:05;92126.78;;;4.35;56.72
39455;BME280;25155;41.890;23.446;2023-02-20T02:37:26;92132.13;;;3.94;58.24
39455;BME280;25155;41.890;23.446;2023-02-20T02:39:56;92138.41;;;3.81;58.66
39455;BME280;25155;41.890;23.446;2023-02-20T02:42:26;92136.66;;;3.70;59.20
39455;BME280;25155;41.890;23.446;2023-02-20T02:44:55;92127.63;;;3.56;59.87
39455;BME280;25155;41.890;23.446;2023-02-20T02:47:26;92129.00;;;3.46;60.09
39455;BME280;25155;41.890;23.446;2023-02-20T02:49:57;92133.63;;;3.44;59.99
39455;BME280;25155;41.890;23.446;2023-02-20T02:52:26;92128.00;;;3.47;60.34
39455;BME280;25155;41.890;23.446;2023-02-20T02:55:12;92153.09;;;3.47;60.38
39455;BME280;25155;41.890;23.446;2023-02-20T02:57:39;92163.47;;;3.47;60.55
39455;BME280;25155;41.890;23.446;2023-02-20T03:00:07;92164.72;;;3.44;60.86
39455;BME280;25155;41.890;23.446;2023-02-20T03:02:37;92167.78;;;3.41;60.86
39455;BME280;25155;41.890;23.446;2023-02-20T03:05:08;92156.25;;;3.49;60.40
39455;BME280;25155;41.890;23.446;2023-02-20T03:07:37;92163.34;;;3.54;60.03
39455;BME280;25155;41.890;23.446;2023-02-20T03:10:06;92170.19;;;3.60;60.08
39455;BME280;25155;41.890;23.446;2023-02-20T03:12:34;92173.44;;;3.67;59.59
39455;BME280;25155;41.890;23.446;2023-02-20T03:15:04;92181.59;;;3.76;59.40
39455;BME280;25155;41.890;23.446;2023-02-20T03:17:52;92174.53;;;3.71;59.85
39455;BME280;25155;41.890;23.446;2023-02-20T03:20:21;92175.53;;;3.70;59.84
39455;BME280;25155;41.890;23.446;2023-02-20T03:22:51;92166.03;;;3.59;60.32
39455;BME280;25155;41.890;23.446;2023-02-20T03:25:20;92163.97;;;3.61;60.45
39455;BME280;25155;41.890;23.446;2023-02-20T03:27:49;92167.03;;;3.58;60.28
39455;BME280;25155;41.890;23.446;2023-02-20T03:30:19;92164.75;;;3.61;60.33
39455;BME280;25155;41.890;23.446;2023-02-20T03:32:47;92168.34;;;3.72;59.93
39455;BME280;25155;41.890;23.446;2023-02-20T03:35:33;92175.50;;;3.82;59.28
39455;BME280;25155;41.890;23.446;2023-02-20T03:38:20;92178.47;;;3.74;59.94
39455;BME280;25155;41.890;23.446;2023-02-20T03:41:05;92187.47;;;3.71;59.65
39455;BME280;25155;41.890;23.446;2023-02-20T03:43:50;92185.09;;;3.53;60.50
39455;BME280;25155;41.890;23.446;2023-02-20T03:46:19;92197.84;;;3.42;60.98
39455;BME280;25155;41.890;23.446;2023-02-20T03:48:48;92210.00;;;3.42;60.72
39455;BME280;25155;41.890;23.446;2023-02-20T03:51:18;92219.72;;;3.35;61.05
39455;BME280;25155;41.890;23.446;2023-02-20T03:53:58;92213.75;;;3.34;61.11
39455;BME280;25155;41.890;23.446;2023-02-20T03:56:26;92213.53;;;3.36;61.20
39455;BME280;25155;41.890;23.446;2023-02-20T03:58:57;92222.44;;;3.28;61.99
39455;BME280;25155;41.890;23.446;2023-02-20T04:01:25;92222.13;;;3.24;62.12
39455;BME280;25155;41.890;23.446;2023-02-20T04:03:53;92221.69;;;3.16;62.82
39455;BME280;25155;41.890;23.446;2023-02-20T04:06:21;92228.31;;;3.12;63.04
39455;BME280;25155;41.890;23.446;2023-02-20T04:08:52;92234.50;;;3.10;63.47
39455;BME280;25155;41.890;23.446;2023-02-20T04:11:22;92213.78;;;3.10;63.46
39455;BME280;25155;41.890;23.446;2023-02-20T04:13:51;92207.06;;;3.09;64.21
39455;BME280;25155;41.890;23.446;2023-02-20T04:16:20;92232.16;;;3.09;64.14
39455;BME280;25155;41.890;23.446;2023-02-20T04:18:47;92236.44;;;3.03;64.59
39455;BME280;25155;41.890;23.446;2023-02-20T04:21:16;92240.28;;;3.01;64.72
39455;BME280;25155;41.890;23.446;2023-02-20T04:23:46;92228.03;;;2.96;64.99
39455;BME280;25155;41.890;23.446;2023-02-20T04:26:16;92216.63;;;2.97;65.08
39455;BME280;25155;41.890;23.446;2023-02-20T04:28:45;92216.19;;;3.00;64.74
39455;BME280;25155;41.890;23.446;2023-02-20T04:31:13;92229.47;;;3.16;63.87
39455;BME280;25155;41.890;23.446;2023-02-20T04:33:41;92231.78;;;3.17;63.97
39455;BME280;25155;41.890;23.446;2023-02-20T04:36:08;92235.09;;;3.13;64.15
39455;BME280;25155;41.890;23.446;2023-02-20T04:38:35;92240.59;;;3.16;63.43
39455;BME280;25155;41.890;23.446;2023-02-20T04:41:02;92240.56;;;3.28;62.42
39455;BME280;25155;41.890;23.446;2023-02-20T04:43:29;92243.16;;;3.28;62.68
39455;BME280;25155;41.890;23.446;2023-02-20T04:45:58;92248.34;;;3.28;62.49
39455;BME280;25155;41.890;23.446;2023-02-20T04:48:25;92255.47;;;3.21;62.58
39455;BME280;25155;41.890;23.446;2023-02-20T04:50:52;92264.47;;;3.18;62.63
39455;BME280;25155;41.890;23.446;2023-02-20T04:53:19;92257.69;;;3.29;61.79
39455;BME280;25155;41.890;23.446;2023-02-20T04:55:45;92260.84;;;3.31;61.32
39455;BME280;25155;41.890;23.446;2023-02-20T04:58:12;92270.44;;;3.31;61.17
39455;BME280;25155;41.890;23.446;2023-02-20T05:00:39;92272.00;;;3.32;61.25
39455;BME280;25155;41.890;23.446;2023-02-20T05:03:07;92287.09;;;3.35;60.96
39455;BME280;25155;41.890;23.446;2023-02-20T05:05:34;92294.72;;;3.41;60.42
39455;BME280;25155;41.890;23.446;2023-02-20T05:08:02;92285.72;;;3.32;60.59
39455;BME280;25155;41.890;23.446;2023-02-20T05:10:30;92291.28;;;3.24;60.83
39455;BME280;25155;41.890;23.446;2023-02-20T05:12:58;92296.66;;;3.10;61.00
39455;BME280;25155;41.890;23.446;2023-02-20T05:15:25;92300.50;;;3.08;61.29
39455;BME280;25155;41.890;23.446;2023-02-20T05:17:52;92288.34;;;3.08;61.14
39455;BME280;25155;41.890;23.446;2023-02-20T05:20:20;92285.75;;;3.08;61.01
39455;BME280;25155;41.890;23.446;2023-02-20T05:23:09;92294.22;;;3.16;60.80
39455;BME280;25155;41.890;23.446;2023-02-20T05:25:34;92296.47;;;3.24;60.44
39455;BME280;25155;41.890;23.446;2023-02-20T05:28:01;92305.91;;;3.18;61.20
39455;BME280;25155;41.890;23.446;2023-02-20T05:30:28;92301.97;;;3.16;61.67
39455;BME280;25155;41.890;23.446;2023-02-20T05:32:55;92317.72;;;3.02;62.36
39455;BME280;25155;41.890;23.446;2023-02-20T05:35:24;92317.38;;;2.99;62.41
39455;BME280;25155;41.890;23.446;2023-02-20T05:37:50;92319.31;;;3.03;62.59
39455;BME280;25155;41.890;23.446;2023-02-20T05:40:17;92324.59;;;3.08;62.69
39455;BME280;25155;41.890;23.446;2023-02-20T05:42:44;92335.28;;;3.12;62.79
39455;BME280;25155;41.890;23.446;2023-02-20T05:45:12;92334.94;;;3.08;62.91
39455;BME280;25155;41.890;23.446;2023-02-20T05:47:40;92333.84;;;3.04;63.24
39455;BME280;25155;41.890;23.446;2023-02-20T05:50:07;92336.53;;;2.98;63.30
39455;BME280;25155;41.890;23.446;2023-02-20T05:52:35;92346.97;;;2.91;63.55
39455;BME280;25155;41.890;23.446;2023-02-20T05:55:02;92355.28;;;2.93;63.79
39455;BME280;25155;41.890;23.446;2023-02-20T05:57:29;92343.50;;;3.09;63.12
39455;BME280;25155;41.890;23.446;2023-02-20T05:59:56;92353.19;;;3.14;63.14
39455;BME280;25155;41.890;23.446;2023-02-20T06:02:23;92352.41;;;3.25;62.25
39455;BME280;25155;41.890;23.446;2023-02-20T06:04:49;92363.00;;;3.35;61.72
39455;BME280;25155;41.890;23.446;2023-02-20T06:07:16;92373.59;;;3.45;61.29
39455;BME280;25155;41.890;23.446;2023-02-20T06:09:44;92368.59;;;3.68;60.04
39455;BME280;25155;41.890;23.446;2023-02-20T06:12:11;92369.81;;;3.77;58.91
39455;BME280;25155;41.890;23.446;2023-02-20T06:14:39;92356.97;;;3.70;58.39
39455;BME280;25155;41.890;23.446;2023-02-20T06:17:06;92367.25;;;3.65;58.34
39455;BME280;25155;41.890;23.446;2023-02-20T06:19:32;92371.97;;;3.68;58.19
39455;BME280;25155;41.890;23.446;2023-02-20T06:21:59;92361.16;;;3.71;58.50
39455;BME280;25155;41.890;23.446;2023-02-20T06:24:26;92365.44;;;3.77;57.73
39455;BME280;25155;41.890;23.446;2023-02-20T06:26:54;92367.34;;;3.82;57.73
39455;BME280;25155;41.890;23.446;2023-02-20T06:29:21;92368.13;;;3.82;57.32
39455;BME280;25155;41.890;23.446;2023-02-20T06:31:48;92374.91;;;3.83;57.25
39455;BME280;25155;41.890;23.446;2023-02-20T06:34:15;92380.97;;;3.89;56.75
39455;BME280;25155;41.890;23.446;2023-02-20T06:36:42;92395.84;;;3.94;56.27
39455;BME280;25155;41.890;23.446;2023-02-20T06:39:10;92391.91;;;3.91;55.87
39455;BME280;25155;41.890;23.446;2023-02-20T06:41:37;92389.09;;;3.93;55.35
39455;BME280;25155;41.890;23.446;2023-02-20T06:44:06;92388.06;;;3.94;55.28
39455;BME280;25155;41.890;23.446;2023-02-20T06:52:54;92373.94;;;4.13;54.71
39455;BME280;25155;41.890;23.446;2023-02-20T06:55:50;92366.66;;;4.27;54.36
39455;BME280;25155;41.890;23.446;2023-02-20T06:58:19;92359.47;;;4.46;54.21
39455;BME280;25155;41.890;23.446;2023-02-20T07:00:47;92362.88;;;4.64;53.53
39455;BME280;25155;41.890;23.446;2023-02-20T07:03:14;92365.09;;;4.72;52.38
39455;BME280;25155;41.890;23.446;2023-02-20T07:05:41;92357.00;;;4.85;52.58
39455;BME280;25155;41.890;23.446;2023-02-20T07:08:08;92358.28;;;5.00;51.91
39455;BME280;25155;41.890;23.446;2023-02-20T07:10:35;92363.94;;;5.13;50.60
39455;BME280;25155;41.890;23.446;2023-02-20T07:13:02;92355.34;;;5.30;51.06
39455;BME280;25155;41.890;23.446;2023-02-20T07:15:30;92372.25;;;5.44;50.38
39455;BME280;25155;41.890;23.446;2023-02-20T07:17:58;92368.44;;;5.52;50.00
39455;BME280;25155;41.890;23.446;2023-02-20T07:20:25;92371.66;;;5.59;49.43
39455;BME280;25155;41.890;23.446;2023-02-20T07:22:52;92369.06;;;5.59;49.44
39455;BME280;25155;41.890;23.446;2023-02-20T07:25:19;92378.50;;;5.65;49.34
39455;BME280;25155;41.890;23.446;2023-02-20T07:27:46;92377.16;;;5.63;48.65
39455;BME280;25155;41.890;23.446;2023-02-20T07:30:13;92383.69;;;5.65;49.48
39455;BME280;25155;41.890;23.446;2023-02-20T07:32:40;92382.19;;;5.70;49.65
39455;BME280;25155;41.890;23.446;2023-02-20T07:35:08;92398.97;;;5.79;48.94
39455;BME280;25155;41.890;23.446;2023-02-20T07:37:35;92383.84;;;5.76;47.85
39455;BME280;25155;41.890;23.446;2023-02-20T07:40:02;92380.78;;;5.79;47.74
39455;BME280;25155;41.890;23.446;2023-02-20T07:42:29;92370.00;;;5.92;48.33
39455;BME280;25155;41.890;23.446;2023-02-20T07:44:57;92370.44;;;6.06;47.15
39455;BME280;25155;41.890;23.446;2023-02-20T07:47:29;92368.44;;;6.13;47.17
39455;BME280;25155;41.890;23.446;2023-02-20T07:49:56;92366.38;;;6.15;45.89
39455;BME280;25155;41.890;23.446;2023-02-20T07:52:24;92362.97;;;6.15;45.66
39455;BME280;25155;41.890;23.446;2023-02-20T07:54:51;92349.97;;;6.15;45.82
39455;BME280;25155;41.890;23.446;2023-02-20T07:57:18;92355.78;;;6.22;45.08
39455;BME280;25155;41.890;23.446;2023-02-20T07:59:45;92364.72;;;6.31;45.46
39455;BME280;25155;41.890;23.446;2023-02-20T08:02:12;92375.25;;;6.41;45.25
39455;BME280;25155;41.890;23.446;2023-02-20T08:04:38;92368.25;;;6.42;43.85
39455;BME280;25155;41.890;23.446;2023-02-20T08:07:05;92355.91;;;6.32;43.54
39455;BME280;25155;41.890;23.446;2023-02-20T08:09:33;92355.59;;;6.29;44.78
39455;BME280;25155;41.890;23.446;2023-02-20T08:12:00;92366.56;;;6.31;44.65
39455;BME280;25155;41.890;23.446;2023-02-20T08:14:27;92353.84;;;6.34;44.56
39455;BME280;25155;41.890;23.446;2023-02-20T08:16:55;92351.03;;;6.41;44.58
39455;BME280;25155;41.890;23.446;2023-02-20T08:19:22;92352.63;;;6.42;43.56
39455;BME280;25155;41.890;23.446;2023-02-20T08:21:49;92356.25;;;6.41;43.58
39455;BME280;25155;41.890;23.446;2023-02-20T08:24:15;92352.66;;;6.47;43.09
39455;BME280;25155;41.890;23.446;2023-02-20T08:26:44;92350.31;;;6.46;43.20
39455;BME280;25155;41.890;23.446;2023-02-20T08:29:11;92359.00;;;6.56;43.31
39455;BME280;25155;41.890;23.446;2023-02-20T08:31:38;92366.38;;;6.65;42.94
39455;BME280;25155;41.890;23.446;2023-02-20T08:34:04;92350.53;;;6.71;43.04
39455;BME280;25155;41.890;23.446;2023-02-20T08:36:31;92344.19;;;6.89;42.31
39455;BME280;25155;41.890;23.446;2023-02-20T08:38:58;92353.63;;;6.95;41.69
39455;BME280;25155;41.890;23.446;2023-02-20T08:41:25;92327.34;;;7.02;41.83
39455;BME280;25155;41.890;23.446;2023-02-20T08:43:54;92326.09;;;7.05;41.77
39455;BME280;25155;41.890;23.446;2023-02-20T08:46:20;92323.28;;;7.11;41.41
39455;BME280;25155;41.890;23.446;2023-02-20T08:48:47;92317.59;;;7.20;41.61
39455;BME280;25155;41.890;23.446;2023-02-20T08:51:17;92313.41;;;7.19;41.54
39455;BME280;25155;41.890;23.446;2023-02-20T08:53:44;92332.16;;;7.15;41.41
39455;BME280;25155;41.890;23.446;2023-02-20T08:56:11;92341.06;;;7.20;40.91
39455;BME280;25155;41.890;23.446;2023-02-20T08:58:38;92325.44;;;7.25;41.25
39455;BME280;25155;41.890;23.446;2023-02-20T09:01:06;92338.03;;;7.33;40.64
39455;BME280;25155;41.890;23.446;2023-02-20T09:03:33;92316.97;;;7.40;40.96
39455;BME280;25155;41.890;23.446;2023-02-20T09:06:03;92326.09;;;7.42;40.70
39455;BME280;25155;41.890;23.446;2023-02-20T09:08:29;92338.09;;;7.43;40.09
39455;BME280;25155;41.890;23.446;2023-02-20T09:10:56;92331.28;;;7.37;40.29
39455;BME280;25155;41.890;23.446;2023-02-20T09:13:23;92332.63;;;7.40;40.75
39455;BME280;25155;41.890;23.446;2023-02-20T09:15:50;92332.16;;;7.48;40.66
39455;BME280;25155;41.890;23.446;2023-02-20T09:18:18;92340.50;;;7.50;40.11
39455;BME280;25155;41.890;23.446;2023-02-20T09:20:45;92338.66;;;7.50;40.58
39455;BME280;25155;41.890;23.446;2023-02-20T09:23:12;92335.13;;;7.72;39.46
39455;BME280;25155;41.890;23.446;2023-02-20T09:25:39;92357.13;;;7.86;40.08
39455;BME280;25155;41.890;23.446;2023-02-20T09:28:06;92343.09;;;7.98;39.33
39455;BME280;25155;41.890;23.446;2023-02-20T09:30:34;92350.66;;;7.99;38.87
39455;BME280;25155;41.890;23.446;2023-02-20T09:33:01;92355.13;;;8.04;38.67
39455;BME280;25155;41.890;23.446;2023-02-20T09:35:29;92359.88;;;8.12;38.42
39455;BME280;25155;41.890;23.446;2023-02-20T09:37:56;92344.75;;;8.19;38.10
39455;BME280;25155;41.890;23.446;2023-02-20T09:40:24;92353.63;;;8.23;37.87
39455;BME280;25155;41.890;23.446;2023-02-20T09:45:37;92351.34;;;8.37;38.21
39455;BME280;25155;41.890;23.446;2023-02-20T09:48:09;92342.69;;;8.37;37.89
39455;BME280;25155;41.890;23.446;2023-02-20T09:50:41;92330.19;;;8.34;36.83
39455;BME280;25155;41.890;23.446;2023-02-20T09:53:13;92345.84;;;8.34;36.71
39455;BME280;25155;41.890;23.446;2023-02-20T09:55:41;92347.91;;;8.37;36.79
39455;BME280;25155;41.890;23.446;2023-02-20T09:58:11;92339.84;;;8.43;36.40
39455;BME280;25155;41.890;23.446;2023-02-20T10:00:42;92330.47;;;8.48;36.63
39455;BME280;25155;41.890;23.446;2023-02-20T10:03:12;92351.09;;;8.49;36.98
39455;BME280;25155;41.890;23.446;2023-02-20T10:05:44;92352.16;;;8.53;36.44
39455;BME280;25155;41.890;23.446;2023-02-20T10:08:13;92349.56;;;8.63;36.82
39455;BME280;25155;41.890;23.446;2023-02-20T10:10:42;92350.63;;;8.68;36.40
39455;BME280;25155;41.890;23.446;2023-02-20T10:13:12;92344.88;;;8.71;35.98
39455;BME280;25155;41.890;23.446;2023-02-20T10:15:43;92350.13;;;8.86;36.22
39455;BME280;25155;41.890;23.446;2023-02-20T10:18:16;92346.22;;;8.89;35.41
39455;BME280;25155;41.890;23.446;2023-02-20T10:20:48;92357.19;;;8.86;35.06
39455;BME280;25155;41.890;23.446;2023-02-20T10:23:20;92358.47;;;8.88;34.59
39455;BME280;25155;41.890;23.446;2023-02-20T10:25:52;92335.00;;;8.93;34.95
39455;BME280;25155;41.890;23.446;2023-02-20T10:28:20;92339.72;;;9.02;34.82
39455;BME280;25155;41.890;23.446;2023-02-20T10:30:48;92357.22;;;9.06;33.72
39455;BME280;25155;41.890;23.446;2023-02-20T10:33:19;92348.34;;;9.07;35.01
39455;BME280;25155;41.890;23.446;2023-02-20T10:35:51;92358.53;;;9.09;34.83
39455;BME280;25155;41.890;23.446;2023-02-20T10:38:20;92360.63;;;9.12;34.67
39455;BME280;25155;41.890;23.446;2023-02-20T10:40:50;92359.34;;;9.25;35.50
39455;BME280;25155;41.890;23.446;2023-02-20T10:43:18;92345.97;;;9.26;34.47
39455;BME280;25155;41.890;23.446;2023-02-20T10:45:50;92346.25;;;9.19;34.94
39455;BME280;25155;41.890;23.446;2023-02-20T10:48:18;92346.75;;;9.11;34.51
39455;BME280;25155;41.890;23.446;2023-02-20T10:50:48;92354.34;;;9.08;34.21
39455;BME280;25155;41.890;23.446;2023-02-20T10:53:20;92335.78;;;9.09;33.71
39455;BME280;25155;41.890;23.446;2023-02-20T10:55:51;92344.44;;;9.15;34.21
39455;BME280;25155;41.890;23.446;2023-02-20T10:58:21;92336.03;;;9.18;34.52
39455;BME280;25155;41.890;23.446;2023-02-20T11:00:52;92341.81;;;9.15;35.00
39455;BME280;25155;41.890;23.446;2023-02-20T11:03:23;92347.03;;;9.20;34.86
39455;BME280;25155;41.890;23.446;2023-02-20T11:05:52;92340.50;;;9.33;34.79
39455;BME280;25155;41.890;23.446;2023-02-20T11:08:21;92330.28;;;9.47;33.88
39455;BME280;25155;41.890;23.446;2023-02-20T11:10:48;92333.66;;;9.47;34.07
39455;BME280;25155;41.890;23.446;2023-02-20T11:13:19;92339.16;;;9.46;34.00
39455;BME280;25155;41.890;23.446;2023-02-20T11:15:49;92310.66;;;9.44;33.93
39455;BME280;25155;41.890;23.446;2023-02-20T11:18:19;92305.69;;;9.53;33.42
39455;BME280;25155;41.890;23.446;2023-02-20T11:20:50;92307.75;;;9.61;33.08
39455;BME280;25155;41.890;23.446;2023-02-20T11:23:36;92304.06;;;9.67;32.63
39455;BME280;25155;41.890;23.446;2023-02-20T11:29:02;92336.00;;;9.74;31.43
39455;BME280;25155;41.890;23.446;2023-02-20T11:31:31;92334.66;;;9.72;32.46
39455;BME280;25155;41.890;23.446;2023-02-20T11:33:58;92331.75;;;9.84;31.73
39455;BME280;25155;41.890;23.446;2023-02-20T11:36:27;92336.72;;;9.85;32.79
39455;BME280;25155;41.890;23.446;2023-02-20T11:38:59;92335.13;;;10.00;31.71
39455;BME280;25155;41.890;23.446;2023-02-20T11:41:30;92345.75;;;10.24;33.02
39455;BME280;25155;41.890;23.446;2023-02-20T11:46:45;92326.41;;;10.20;31.02
39455;BME280;25155;41.890;23.446;2023-02-20T11:49:22;92344.81;;;10.04;32.70
39455;BME280;25155;41.890;23.446;2023-02-20T11:51:50;92331.75;;;9.89;32.45
39455;BME280;25155;41.890;23.446;2023-02-20T11:54:19;92335.19;;;9.74;32.10
39455;BME280;25155;41.890;23.446;2023-02-20T11:56:53;92347.22;;;9.75;31.43
39455;BME280;25155;41.890;23.446;2023-02-20T11:59:26;92344.88;;;9.79;30.97
39455;BME280;25155;41.890;23.446;2023-02-20T12:01:53;92361.63;;;9.78;30.39
39455;BME280;25155;41.890;23.446;2023-02-20T12:04:21;92352.97;;;9.77;30.47
39455;BME280;25155;41.890;23.446;2023-02-20T12:06:48;92344.31;;;9.92;31.12
39455;BME280;25155;41.890;23.446;2023-02-20T12:09:15;92338.00;;;9.98;29.63
39455;BME280;25155;41.890;23.446;2023-02-20T12:11:45;92354.75;;;9.97;30.17
39455;BME280;25155;41.890;23.446;2023-02-20T12:14:13;92344.81;;;9.94;30.84
39455;BME280;25155;41.890;23.446;2023-02-20T12:16:46;92341.66;;;10.02;30.30
39455;BME280;25155;41.890;23.446;2023-02-20T12:19:16;92343.19;;;10.14;29.81
39455;BME280;25155;41.890;23.446;2023-02-20T12:21:49;92329.00;;;10.25;29.99
39455;BME280;25155;41.890;23.446;2023-02-20T12:24:28;92322.53;;;10.07;29.40
39455;BME280;25155;41.890;23.446;2023-02-20T12:27:03;92318.59;;;10.09;30.56
39455;BME280;25155;41.890;23.446;2023-02-20T12:29:40;92319.38;;;10.10;29.88
39455;BME280;25155;41.890;23.446;2023-02-20T12:32:11;92312.84;;;10.07;29.76
39455;BME280;25155;41.890;23.446;2023-02-20T12:34:46;92306.28;;;10.10;29.98
39455;BME280;25155;41.890;23.446;2023-02-20T12:37:18;92313.84;;;10.17;30.40
39455;BME280;25155;41.890;23.446;2023-02-20T12:39:52;92317.22;;;10.27;30.21
39455;BME280;25155;41.890;23.446;2023-02-20T12:42:26;92322.66;;;10.41;30.18
39455;BME280;25155;41.890;23.446;2023-02-20T12:45:09;92301.94;;;10.45;29.69
39455;BME280;25155;41.890;23.446;2023-02-20T12:47:40;92310.38;;;10.37;30.81
39455;BME280;25155;41.890;23.446;2023-02-20T12:53:05;92311.38;;;10.46;30.55
39455;BME280;25155;41.890;23.446;2023-02-20T12:55:37;92302.75;;;10.45;30.40
39455;BME280;25155;41.890;23.446;2023-02-20T12:58:15;92300.94;;;10.41;30.38
39455;BME280;25155;41.890;23.446;2023-02-20T13:00:46;92297.50;;;10.45;30.42
39455;BME280;25155;41.890;23.446;2023-02-20T13:03:17;92289.63;;;10.51;30.68
39455;BME280;25155;41.890;23.446;2023-02-20T13:05:45;92292.44;;;10.59;31.12
39455;BME280;25155;41.890;23.446;2023-02-20T13:08:14;92279.94;;;10.46;31.16
39455;BME280;25155;41.890;23.446;2023-02-20T13:10:52;92295.63;;;10.51;31.87
39455;BME280;25155;41.890;23.446;2023-02-20T13:13:23;92294.06;;;10.50;31.41
39455;BME280;25155;41.890;23.446;2023-02-20T13:15:52;92306.91;;;10.46;31.27
39455;BME280;25155;41.890;23.446;2023-02-20T13:18:25;92311.91;;;10.43;31.40
39455;BME280;25155;41.890;23.446;2023-02-20T13:20:55;92322.97;;;10.29;31.48
39455;BME280;25155;41.890;23.446;2023-02-20T13:23:27;92320.06;;;10.31;31.30
39455;BME280;25155;41.890;23.446;2023-02-20T13:25:54;92318.50;;;10.35;30.10
39455;BME280;25155;41.890;23.446;2023-02-20T13:28:24;92312.53;;;10.19;31.23
39455;BME280;25155;41.890;23.446;2023-02-20T13:31:08;92314.34;;;10.19;30.94
39455;BME280;25155;41.890;23.446;2023-02-20T13:33:36;92315.19;;;10.14;30.71
39455;BME280;25155;41.890;23.446;2023-02-20T13:36:03;92323.81;;;10.15;31.59